עמוד ראשי
METAR-TAF:

METAR-TAF

שדות תעופה :

Salalah, עומאן

קו רוחב: 17-02N, קו אורך: 054-05E, גובה: 20מטר

תצפית מזג אוויר נוכחית

הדו"ח נערך לפני 43דקות, בשעה 18:50 UTC
רוח 7קשר מכיוון דרום
טמפרטורת 30 צלסיוס
לחות 84%
לחץ 1006 hPa
ראות 10 קילומטר או יותר
עננים בינוניים בגובה 2500רגל

METAR: OOSA 131850Z 19007KT 9999 BKN025 30/27 Q1006 NOSIG

זמן: 23:33 (19:33 UTC)

תחזית

הדו"ח נערך לפני 1 שעות ו 53דקות, בשעה 17:40 UTC
תחזית בתוקף מ 13 ב 18 UTC עד 15 ב 00 UTC
רוח 3קשר עם כיוונים משתנים
ראות 10 קילומטר או יותר
עננים פזורים בגובה 2500רגל
יעשה מ
14 ב 07 UTC עד 14 ב 09 UTC
רוח 14קשר מכיוון דרום
יעשה מ
14 ב 16 UTC עד 14 ב 18 UTC
רוח 3קשר עם כיוונים משתנים

TAF: OOSA 131740Z 1318/1500 VRB03KT 9999 SCT025 BECMG 1407/1409 19014KT BECMG 1416/1418 VRB03KT

תצפיות ותחזיות מזג אוויר לגבי יותר מ- 4,000 שדות תעופה ברחבי העולם. דוחות METAR ו- TAF.

התחנות הזמינות מסומנות בנקודות צהובות ואדומות על גבי המפה.

העבר את העכבר לנקודה הצבעונית על מנת לראות את שם התחנה.

לאחר מכן, לחץ כדי לראות את תוכן ואת תחזיות מזג האוויר.

כדי לשנות את המפה: לחץ על הכפתורים הירוקים עם הפלוס השחור כדי להתקרב; על הכפתור הירוק עם המקף כדי להתרחק; או בחיצים הירוקים למפות סמוכות.


METAR-TAF: